Time;durP1;ratioP1;P1;durP2;ratioP2;P2;SDS_P1;SDS_P2;PMS_P1;PMS_P2;Temp;Humidity;BMP_temperature;BMP_pressure;BME280_temperature;BME280_humidity;BME280_pressure;Samples;Min_cycle;Max_cycle;Signal;HPM_P1;HPM_P2
2020/12/14 00:01:05;;;;;;;;;;;;;;;17.42;70.03;100603.63;5054084;28;1361;-48
2020/12/14 00:03:33;;;;;;;;;;;;;;;17.38;70.17;100612.91;5053790;28;1177;-48
2020/12/14 00:05:59;;;;;;;;;;;;;;;17.37;70.15;100616.56;5054209;28;764;-49
2020/12/14 00:08:24;;;;;;;;;;;;;;;17.37;70.46;100619.22;5053771;28;1914;-49
2020/12/14 00:10:50;;;;;;;;;;;;;;;17.37;70.91;100616.56;5053567;28;928;-49
2020/12/14 00:13:15;;;;;;;;;;;;;;;17.37;70.85;100632.59;5071588;28;1397;-49
2020/12/14 00:15:40;;;;;;;;;;;;;;;17.35;70.13;100634.56;5073692;28;857;-49
2020/12/14 00:18:05;;;;;;;;;;;;;;;17.33;71.26;100636.50;5073988;28;813;-49
2020/12/14 00:20:30;;;;;;;;;;;;;;;17.33;69.97;100641.84;5073976;28;880;-49
2020/12/14 00:22:56;;;;;;;;;;;;;;;17.30;71.34;100644.75;5073671;28;810;-49
2020/12/14 00:25:21;;;;;;;;;;;;;;;17.31;71.16;100665.19;5073978;28;844;-49
2020/12/14 00:27:46;;;;;;;;;;;;;;;17.26;71.14;100652.19;5057712;28;1902;-48
2020/12/14 00:30:11;;;;;;;;;;;;;;;17.32;70.42;100656.16;5062945;28;1589;-49
2020/12/14 00:32:37;;;;;;;;;;;;;;;17.26;70.80;100646.00;5073792;28;845;-49
2020/12/14 00:35:02;;;;;;;;;;;;;;;17.24;71.31;100651.47;5073793;28;868;-49
2020/12/14 00:37:27;;;;;;;;;;;;;;;17.24;71.10;100643.44;5073788;28;853;-49
2020/12/14 00:39:53;;;;;;;;;;;;;;;17.24;71.13;100639.94;5073817;28;794;-49
2020/12/14 00:42:18;;;;;;;;;;;;;;;17.25;71.17;100644.31;5073419;28;849;-49
2020/12/14 00:44:43;;;;;;;;;;;;;;;17.25;70.59;100660.34;5064920;28;1302;-49
2020/12/14 00:47:08;;;;;;;;;;;;;;;17.23;71.05;100651.56;5053103;28;1897;-49
2020/12/14 00:49:34;;;;;;;;;;;;;;;17.21;70.96;100659.75;5053350;28;781;-49
2020/12/14 00:52:04;;;;;;;;;;;;;;;17.16;70.08;100650.41;5053586;28;849;-49
2020/12/14 00:54:29;;;;;;;;;;;;;;;17.15;70.20;100644.22;5053837;28;730;-49
2020/12/14 00:56:54;;;;;;;;;;;;;;;17.14;71.30;100663.03;5053541;28;926;-48
2020/12/14 00:59:19;;;;;;;;;;;;;;;17.10;71.15;100652.59;5060305;28;1682;-49
2020/12/14 01:01:49;;;;;;;;;;;;;;;17.14;70.43;100641.66;5072007;28;1444;-49
2020/12/14 01:04:14;;;;;;;;;;;;;;;17.13;71.09;100640.81;5073191;28;1337;-49
2020/12/14 01:06:39;;;;;;;;;;;;;;;17.16;71.57;100640.56;5073156;28;1987;-49
2020/12/14 01:09:05;;;;;;;;;;;;;;;17.25;72.20;100652.34;5073117;28;924;-49
2020/12/14 01:11:30;;;;;;;;;;;;;;;17.25;71.43;100647.81;5072527;28;1593;-49
2020/12/14 01:13:55;;;;;;;;;;;;;;;17.27;71.94;100653.06;5073186;28;797;-49
2020/12/14 01:16:20;;;;;;;;;;;;;;;17.23;72.54;100657.78;5073090;28;875;-49
2020/12/14 01:18:46;;;;;;;;;;;;;;;17.26;72.80;100656.69;5067451;28;1534;-49
2020/12/14 01:21:11;;;;;;;;;;;;;;;17.28;73.30;100665.41;5060499;28;1448;-50
2020/12/14 01:23:36;;;;;;;;;;;;;;;17.30;73.79;100674.16;5058731;28;1436;-50
2020/12/14 01:26:02;;;;;;;;;;;;;;;17.29;73.09;100664.47;5059767;28;1735;-49
2020/12/14 01:28:27;;;;;;;;;;;;;;;17.30;72.34;100664.31;5065512;28;1886;-49
2020/12/14 01:30:54;;;;;;;;;;;;;;;17.32;72.77;100666.88;5065884;28;1609;-49
2020/12/14 01:33:20;;;;;;;;;;;;;;;17.33;72.43;100663.22;5064329;28;1764;-49
2020/12/14 01:35:45;;;;;;;;;;;;;;;17.31;72.33;100657.16;5075480;28;1484;-50
2020/12/14 01:38:11;;;;;;;;;;;;;;;17.31;73.05;100659.84;5076480;28;860;-50
2020/12/14 01:40:36;;;;;;;;;;;;;;;17.38;72.83;100655.66;5076601;28;826;-50
2020/12/14 01:43:01;;;;;;;;;;;;;;;17.39;73.82;100656.50;5076793;28;837;-50
2020/12/14 01:45:26;;;;;;;;;;;;;;;17.38;73.08;100666.34;5077084;28;814;-50
2020/12/14 01:47:52;;;;;;;;;;;;;;;17.45;72.08;100666.72;5076778;28;1991;-50
2020/12/14 01:50:18;;;;;;;;;;;;;;;17.47;72.53;100660.25;5060531;28;1758;-47
2020/12/14 01:52:46;;;;;;;;;;;;;;;17.39;73.77;100662.72;5058008;28;1596;-47
2020/12/14 01:55:13;;;;;;;;;;;;;;;17.31;73.74;100667.84;5076409;28;1124;-48
2020/12/14 01:57:39;;;;;;;;;;;;;;;17.20;73.91;100651.84;5075474;28;857;-48
2020/12/14 02:00:08;;;;;;;;;;;;;;;17.20;74.34;100662.53;5076003;28;845;-48
2020/12/14 02:02:33;;;;;;;;;;;;;;;17.11;75.22;100648.13;5076142;28;1439;-48
2020/12/14 02:04:59;;;;;;;;;;;;;;;17.08;75.70;100665.22;5076439;28;887;-48
2020/12/14 02:07:25;;;;;;;;;;;;;;;17.05;75.12;100673.50;5070443;28;1977;-47
2020/12/14 02:09:53;;;;;;;;;;;;;;;17.01;74.57;100657.84;5056625;28;893;-48
2020/12/14 02:12:21;;;;;;;;;;;;;;;16.99;75.79;100671.34;5056392;28;801;-48
2020/12/14 02:14:47;;;;;;;;;;;;;;;16.98;75.62;100664.28;5056331;28;853;-48
2020/12/14 02:17:17;;;;;;;;;;;;;;;16.97;76.03;100667.06;5056163;28;869;-48
2020/12/14 02:19:43;;;;;;;;;;;;;;;16.96;75.41;100658.22;5056296;28;825;-48
2020/12/14 02:22:08;;;;;;;;;;;;;;;16.96;75.87;100652.88;5061401;28;1491;-48
2020/12/14 02:24:33;;;;;;;;;;;;;;;16.96;75.09;100660.91;5073396;28;1508;-48
2020/12/14 02:26:58;;;;;;;;;;;;;;;16.97;76.08;100667.06;5055651;28;1941;-49
2020/12/14 02:29:24;;;;;;;;;;;;;;;16.96;75.95;100671.56;5054434;28;846;-48
2020/12/14 02:31:49;;;;;;;;;;;;;;;16.93;75.94;100679.84;5055355;28;814;-48
2020/12/14 02:34:14;;;;;;;;;;;;;;;16.88;75.29;100684.72;5055979;28;849;-48
2020/12/14 02:36:39;;;;;;;;;;;;;;;16.89;74.98;100681.03;5055678;28;841;-47
2020/12/14 02:39:05;;;;;;;;;;;;;;;16.91;74.94;100695.16;5056133;28;1670;-49
2020/12/14 02:41:30;;;;;;;;;;;;;;;16.86;75.88;100687.50;5056288;28;1633;-48
2020/12/14 02:43:55;;;;;;;;;;;;;;;16.87;75.98;100688.34;5055582;28;877;-48
2020/12/14 02:46:21;;;;;;;;;;;;;;;16.82;75.25;100679.88;5055701;28;1886;-48
2020/12/14 02:48:46;;;;;;;;;;;;;;;16.86;76.04;100687.50;5063598;28;1507;-48
2020/12/14 02:51:11;;;;;;;;;;;;;;;16.84;76.25;100688.59;5075340;28;900;-48
2020/12/14 02:53:36;;;;;;;;;;;;;;;16.83;76.07;100681.53;5075377;28;1026;-48
2020/12/14 02:56:05;;;;;;;;;;;;;;;16.81;75.84;100699.47;5075393;28;1015;-48
2020/12/14 02:58:30;;;;;;;;;;;;;;;16.80;75.98;100692.47;5075471;28;990;-48
2020/12/14 03:00:55;;;;;;;;;;;;;;;16.80;75.99;100700.47;5075416;28;1352;-48
2020/12/14 03:03:21;;;;;;;;;;;;;;;16.76;76.27;100688.34;5067725;28;1338;-48
2020/12/14 03:05:47;;;;;;;;;;;;;;;16.74;76.05;100687.59;5055517;28;1548;-48
2020/12/14 03:08:13;;;;;;;;;;;;;;;16.75;76.33;100689.28;5055312;28;1985;-48
2020/12/14 03:10:38;;;;;;;;;;;;;;;16.79;76.61;100698.75;5055350;28;845;-48
2020/12/14 03:13:03;;;;;;;;;;;;;;;16.73;76.54;100691.25;5054893;28;853;-48
2020/12/14 03:15:28;;;;;;;;;;;;;;;16.73;75.76;100691.25;5053360;28;838;-48
2020/12/14 03:17:54;;;;;;;;;;;;;;;16.70;75.83;100681.66;5060311;28;1558;-48
2020/12/14 03:20:19;;;;;;;;;;;;;;;16.69;76.51;100683.50;5075048;28;913;-48
2020/12/14 03:22:44;;;;;;;;;;;;;;;16.67;76.01;100669.41;5074867;28;1689;-48
2020/12/14 03:25:09;;;;;;;;;;;;;;;16.70;76.40;100677.16;5074996;28;837;-48
2020/12/14 03:27:34;;;;;;;;;;;;;;;16.67;76.34;100688.09;5074581;28;1893;-48
2020/12/14 03:30:00;;;;;;;;;;;;;;;16.66;76.74;100691.72;5074512;28;1062;-48
2020/12/14 03:32:25;;;;;;;;;;;;;;;16.68;75.82;100700.47;5070772;28;1626;-48
2020/12/14 03:34:50;;;;;;;;;;;;;;;16.69;75.52;100683.50;5054576;28;853;-48
2020/12/14 03:37:15;;;;;;;;;;;;;;;16.72;76.51;100689.56;5054101;28;932;-48
2020/12/14 03:39:41;;;;;;;;;;;;;;;16.70;76.42;100687.84;5054447;28;1026;-48
2020/12/14 03:42:06;;;;;;;;;;;;;;;16.72;76.29;100692.22;5054600;28;801;-48
2020/12/14 03:44:31;;;;;;;;;;;;;;;16.68;76.04;100683.59;5072656;28;1428;-48
2020/12/14 03:46:56;;;;;;;;;;;;;;;16.66;75.37;100688.22;5073577;28;1894;-48
2020/12/14 03:49:22;;;;;;;;;;;;;;;16.67;76.19;100689.91;5074526;28;878;-48
2020/12/14 03:51:47;;;;;;;;;;;;;;;16.67;75.32;100690.78;5074230;28;801;-48
2020/12/14 03:54:12;;;;;;;;;;;;;;;16.63;75.55;100678.63;5074370;28;845;-48
2020/12/14 03:56:37;;;;;;;;;;;;;;;16.63;76.33;100685.78;5057442;28;1527;-48
2020/12/14 03:59:03;;;;;;;;;;;;;;;16.65;76.27;100694.50;5054391;28;869;-48
2020/12/14 04:01:31;;;;;;;;;;;;;;;16.65;76.96;100683.84;5054204;28;1389;-48
2020/12/14 04:03:56;;;;;;;;;;;;;;;16.66;76.76;100685.53;5053867;28;1169;-49
2020/12/14 04:06:22;;;;;;;;;;;;;;;16.65;77.07;100690.03;5053788;28;1910;-48
2020/12/14 04:08:48;;;;;;;;;;;;;;;16.63;76.78;100705.34;5053818;28;948;-48
2020/12/14 04:11:13;;;;;;;;;;;;;;;16.63;76.57;100701.78;5054160;28;773;-48
2020/12/14 04:13:39;;;;;;;;;;;;;;;16.62;75.72;100700.13;5053833;28;1062;-48
2020/12/14 04:16:04;;;;;;;;;;;;;;;16.64;76.99;100715.03;5054089;28;820;-48
2020/12/14 04:18:29;;;;;;;;;;;;;;;16.58;76.99;100704.84;5053978;28;1588;-48
2020/12/14 04:20:55;;;;;;;;;;;;;;;16.60;76.26;100705.56;5054005;28;849;-48
2020/12/14 04:23:20;;;;;;;;;;;;;;;16.58;76.80;100699.50;5053711;28;837;-48
2020/12/14 04:25:46;;;;;;;;;;;;;;;16.62;77.40;100716.13;5053968;28;913;-48
2020/12/14 04:28:11;;;;;;;;;;;;;;;16.61;77.28;100722.44;5053821;28;1960;-48
2020/12/14 04:30:36;;;;;;;;;;;;;;;16.56;79.35;100721.97;5053835;28;806;-48
2020/12/14 04:33:01;;;;;;;;;;;;;;;16.58;79.91;100720.00;5053838;28;852;-48
2020/12/14 04:35:27;;;;;;;;;;;;;;;16.57;79.60;100729.81;5053818;28;802;-48
2020/12/14 04:37:52;;;;;;;;;;;;;;;16.54;78.49;100734.56;5053783;28;869;-48
2020/12/14 04:40:18;;;;;;;;;;;;;;;16.57;77.76;100742.31;5053489;28;862;-49
2020/12/14 04:42:44;;;;;;;;;;;;;;;16.59;78.14;100737.72;5053558;28;798;-49
2020/12/14 04:45:10;;;;;;;;;;;;;;;16.56;78.25;100736.16;5053719;28;843;-49
2020/12/14 04:47:35;;;;;;;;;;;;;;;16.58;78.38;100742.22;5053337;28;1886;-48
2020/12/14 04:50:01;;;;;;;;;;;;;;;16.61;77.21;100750.00;5053586;28;846;-48
2020/12/14 04:52:26;;;;;;;;;;;;;;;16.59;77.64;100746.59;5053474;28;1581;-48
2020/12/14 04:54:52;;;;;;;;;;;;;;;16.60;77.99;100744.78;5053541;28;944;-48
2020/12/14 04:57:20;;;;;;;;;;;;;;;16.59;77.35;100749.28;5053353;28;785;-48
2020/12/14 04:59:45;;;;;;;;;;;;;;;16.58;76.85;100752.91;5057301;28;824;-48
2020/12/14 05:02:11;;;;;;;;;;;;;;;16.53;76.78;100744.38;5057063;28;1343;-48
2020/12/14 05:04:39;;;;;;;;;;;;;;;16.54;76.79;100754.09;5057711;28;837;-48
2020/12/14 05:07:05;;;;;;;;;;;;;;;16.55;77.79;100763.81;5057163;28;1910;-48
2020/12/14 05:09:30;;;;;;;;;;;;;;;16.50;76.69;100766.00;5057554;28;851;-48
2020/12/14 05:11:55;;;;;;;;;;;;;;;16.52;77.53;100766.72;5057439;28;853;-48
2020/12/14 05:14:22;;;;;;;;;;;;;;;16.51;76.70;100767.69;5057240;28;789;-48
2020/12/14 05:16:48;;;;;;;;;;;;;;;16.47;77.16;100755.53;5057117;28;845;-48
2020/12/14 05:19:24;;;;;;;;;;;;;;;16.51;76.70;100762.34;5057350;28;793;-48
2020/12/14 05:21:58;;;;;;;;;;;;;;;16.50;76.49;100774.00;5057378;28;778;-48
2020/12/14 05:24:32;;;;;;;;;;;;;;;16.47;76.36;100767.09;5057099;28;785;-48
2020/12/14 05:26:58;;;;;;;;;;;;;;;16.50;77.62;100771.34;5057189;28;1878;-48
2020/12/14 05:29:28;;;;;;;;;;;;;;;16.47;76.38;100774.22;5056862;28;929;-48
2020/12/14 05:32:09;;;;;;;;;;;;;;;16.43;76.60;100776.31;5057179;28;884;-49
2020/12/14 05:34:35;;;;;;;;;;;;;;;16.42;76.28;100776.41;5056762;28;905;-48
2020/12/14 05:37:02;;;;;;;;;;;;;;;16.43;76.37;100788.78;5056970;28;809;-48
2020/12/14 05:39:28;;;;;;;;;;;;;;;16.46;76.67;100785.88;5056738;28;901;-48
2020/12/14 05:41:53;;;;;;;;;;;;;;;16.43;76.42;100791.44;5057227;28;829;-48
2020/12/14 05:44:28;;;;;;;;;;;;;;;16.45;77.00;100792.19;5057238;28;854;-48
2020/12/14 05:46:53;;;;;;;;;;;;;;;16.40;76.16;100781.88;5056846;28;1886;-48
2020/12/14 05:49:19;;;;;;;;;;;;;;;16.40;77.28;100786.38;5056914;28;809;-48
2020/12/14 05:51:44;;;;;;;;;;;;;;;16.38;76.75;100789.13;5056905;28;886;-49
2020/12/14 05:54:12;;;;;;;;;;;;;;;16.36;77.24;100795.56;5057235;28;825;-49
2020/12/14 05:56:38;;;;;;;;;;;;;;;16.36;77.27;100804.41;5056699;28;817;-48
2020/12/14 05:59:03;;;;;;;;;;;;;;;16.34;76.69;100803.69;5056459;28;860;-49
2020/12/14 06:01:29;;;;;;;;;;;;;;;16.41;76.71;100815.59;5056356;28;1748;-48
2020/12/14 06:03:55;;;;;;;;;;;;;;;16.42;76.31;100821.78;5056266;28;1361;-48
2020/12/14 06:06:20;;;;;;;;;;;;;;;16.40;76.66;100832.56;5056410;28;1914;-48
2020/12/14 06:08:45;;;;;;;;;;;;;;;16.40;76.29;100829.91;5056066;28;793;-49
2020/12/14 06:11:26;;;;;;;;;;;;;;;16.36;76.69;100816.91;5056059;28;884;-48
2020/12/14 06:13:54;;;;;;;;;;;;;;;16.37;76.04;100826.63;5056482;28;797;-49
2020/12/14 06:30:59;;;;;;;;;;;;;;;16.32;75.82;100831.47;4533299;27;16860238;-48
2020/12/14 06:33:34;;;;;;;;;;;;;;;16.30;76.67;100824.41;5120057;28;1676;-49
2020/12/14 06:36:15;;;;;;;;;;;;;;;16.34;75.87;100832.19;5120795;28;1931;-50
2020/12/14 06:38:41;;;;;;;;;;;;;;;16.33;76.00;100846.50;5119880;28;1922;-49
2020/12/14 06:41:15;;;;;;;;;;;;;;;16.34;75.87;100845.53;5119590;28;1696;-48
2020/12/14 06:43:41;;;;;;;;;;;;;;;16.33;77.02;100849.16;5121163;28;1774;-49
2020/12/14 06:46:06;;;;;;;;;;;;;;;16.33;76.54;100836.66;5120489;28;1897;-49
2020/12/14 06:48:36;;;;;;;;;;;;;;;16.30;76.75;100855.59;5120624;28;1638;-49
2020/12/14 06:51:02;;;;;;;;;;;;;;;16.35;75.63;100865.91;5120257;28;1689;-49
2020/12/14 06:53:40;;;;;;;;;;;;;;;16.29;75.82;100876.09;5121003;28;1438;-49
2020/12/14 06:56:06;;;;;;;;;;;;;;;16.29;75.88;100880.56;5119104;28;1591;-49
2020/12/14 06:58:36;;;;;;;;;;;;;;;16.27;76.90;100878.03;5118651;28;1947;-49
2020/12/14 07:01:02;;;;;;;;;;;;;;;16.27;76.76;100883.38;5119136;28;1748;-49
2020/12/14 09:22:51;;;;;;;;;;;;;;;16.04;76.63;100943.75;4725201;27;10001359;-50
2020/12/14 09:25:17;;;;;;;;;;;;;;;16.05;75.82;100953.44;5065235;28;1734;-50
2020/12/14 09:27:42;;;;;;;;;;;;;;;16.06;75.68;100947.16;5070154;28;1523;-51
2020/12/14 09:30:07;;;;;;;;;;;;;;;16.06;75.81;100951.66;5069671;28;1977;-50
2020/12/14 09:32:32;;;;;;;;;;;;;;;16.04;75.55;100938.41;5069261;28;1785;-50
2020/12/14 09:34:57;;;;;;;;;;;;;;;16.06;76.02;100939.16;5068639;28;1813;-50
2020/12/14 09:37:23;;;;;;;;;;;;;;;16.05;75.70;100947.25;5065579;28;1610;-51
2020/12/14 09:39:48;;;;;;;;;;;;;;;16.07;75.50;100945.34;5070153;28;1275;-52
2020/12/14 09:42:13;;;;;;;;;;;;;;;16.08;75.56;100952.38;5056006;28;1761;-51
2020/12/14 09:44:38;;;;;;;;;;;;;;;16.04;75.34;100945.56;5064281;28;2071;-51
2020/12/14 09:47:04;;;;;;;;;;;;;;;16.01;76.33;100946.63;5068033;28;1760;-53
2020/12/14 09:49:31;;;;;;;;;;;;;;;16.06;76.36;100944.50;5063236;28;1897;-50
2020/12/14 09:51:56;;;;;;;;;;;;;;;16.03;75.79;100949.19;5068556;28;1890;-51
2020/12/14 09:54:22;;;;;;;;;;;;;;;16.06;75.26;100960.50;5064805;28;1762;-51
2020/12/14 09:56:47;;;;;;;;;;;;;;;16.23;74.77;100953.91;5066376;28;1595;-51
2020/12/14 09:59:12;;;;;;;;;;;;;;;16.46;75.25;100951.38;5067267;28;1718;-50
2020/12/14 10:01:38;;;;;;;;;;;;;;;16.68;74.62;100959.47;5063622;28;1679;-50
2020/12/14 10:04:03;;;;;;;;;;;;;;;16.79;74.16;100963.16;5062221;28;1667;-51
2020/12/14 10:06:28;;;;;;;;;;;;;;;17.03;73.46;100950.63;5058563;28;2236;-51
2020/12/14 10:08:54;;;;;;;;;;;;;;;17.36;71.67;100956.16;5049707;28;2256;-50
2020/12/14 10:11:23;;;;;;;;;;;;;;;17.59;72.11;100957.88;5057070;28;1952;-51
2020/12/14 10:13:48;;;;;;;;;;;;;;;17.75;71.85;100956.66;5060347;28;2275;-51
2020/12/14 10:16:13;;;;;;;;;;;;;;;17.95;70.52;100944.38;5059235;28;1501;-48
2020/12/14 10:18:39;;;;;;;;;;;;;;;18.06;71.39;100947.88;5051308;28;1905;-48
2020/12/14 10:21:04;;;;;;;;;;;;;;;18.26;69.97;100938.22;5049311;28;1689;-47
2020/12/14 10:23:30;;;;;;;;;;;;;;;18.46;69.69;100943.72;5046373;28;1689;-49
2020/12/14 10:25:56;;;;;;;;;;;;;;;18.58;69.44;100945.41;5048865;28;1506;-48
2020/12/14 10:28:21;;;;;;;;;;;;;;;18.95;69.17;100941.47;5052111;28;1601;-48
2020/12/14 10:30:46;;;;;;;;;;;;;;;18.98;71.40;100935.84;5042279;28;1910;-48
2020/12/14 10:33:12;;;;;;;;;;;;;;;19.04;69.70;100929.97;5052217;28;1906;-47
2020/12/14 10:35:37;;;;;;;;;;;;;;;19.15;69.09;100931.72;5051395;28;1528;-47
2020/12/14 10:38:02;;;;;;;;;;;;;;;19.18;69.13;100931.44;5047679;28;1540;-48
2020/12/14 10:40:28;;;;;;;;;;;;;;;19.34;69.14;100934.50;5052598;28;1458;-48
2020/12/14 10:42:54;;;;;;;;;;;;;;;19.35;68.63;100941.56;5049873;28;1437;-48
2020/12/14 10:45:19;;;;;;;;;;;;;;;19.32;68.38;100944.53;5048739;28;1504;-46
2020/12/14 10:47:45;;;;;;;;;;;;;;;19.37;68.65;100930.69;5044995;28;1555;-48
2020/12/14 10:50:10;;;;;;;;;;;;;;;19.37;68.68;100928.84;5046350;28;1887;-49
2020/12/14 10:52:36;;;;;;;;;;;;;;;19.36;68.29;100921.81;5048698;28;1720;-50
2020/12/14 10:55:01;;;;;;;;;;;;;;;19.35;69.09;100940.72;5053352;28;1384;-47
2020/12/14 10:57:27;;;;;;;;;;;;;;;19.20;68.67;100935.69;5048867;28;1512;-47
2020/12/14 10:59:55;;;;;;;;;;;;;;;19.12;69.07;100929.28;5041435;28;1533;-48
2020/12/14 11:02:21;;;;;;;;;;;;;;;19.01;70.20;100949.81;5052004;28;1706;-48
2020/12/14 11:04:46;;;;;;;;;;;;;;;18.92;70.72;100939.03;5049026;28;1558;-48
2020/12/14 11:07:12;;;;;;;;;;;;;;;18.88;70.69;100942.00;5048973;28;1697;-48
2020/12/14 11:09:37;;;;;;;;;;;;;;;18.77;71.43;100949.22;5051515;28;1641;-49
2020/12/14 11:12:06;;;;;;;;;;;;;;;18.59;71.40;100941.72;5049751;28;1945;-48
2020/12/14 11:14:32;;;;;;;;;;;;;;;18.50;71.92;100934.47;5042079;28;1731;-49
2020/12/14 11:16:57;;;;;;;;;;;;;;;18.52;72.44;100939.69;5048820;28;1546;-49
2020/12/14 11:19:22;;;;;;;;;;;;;;;18.41;72.43;100944.13;5046323;28;1600;-48
2020/12/14 11:21:51;;;;;;;;;;;;;;;18.47;71.96;100956.16;5045448;28;1690;-48
2020/12/14 11:24:16;;;;;;;;;;;;;;;18.35;72.55;100955.34;5050971;28;1727;-49
2020/12/14 11:26:42;;;;;;;;;;;;;;;18.33;72.40;100941.22;5050206;28;1421;-48
2020/12/14 11:29:08;;;;;;;;;;;;;;;18.34;72.65;100958.13;5051083;28;1583;-48
2020/12/14 11:31:33;;;;;;;;;;;;;;;18.32;72.20;100952.91;5050580;28;1973;-48
2020/12/14 11:33:59;;;;;;;;;;;;;;;18.29;72.26;100948.66;5049142;28;1568;-48
2020/12/14 11:36:26;;;;;;;;;;;;;;;18.31;72.50;100945.03;5051248;28;1379;-48
2020/12/14 11:38:51;;;;;;;;;;;;;;;18.24;72.31;100953.56;5051720;28;1646;-48
2020/12/14 11:41:17;;;;;;;;;;;;;;;18.29;72.43;100951.34;5041585;28;1506;-49
2020/12/14 11:43:42;;;;;;;;;;;;;;;18.25;72.07;100955.25;5044647;28;1607;-49
2020/12/14 11:46:07;;;;;;;;;;;;;;;18.23;72.55;100957.19;5044452;28;806;-49
2020/12/14 11:48:32;;;;;;;;;;;;;;;18.15;72.42;100953.47;5038745;28;1951;-49
2020/12/14 11:50:58;;;;;;;;;;;;;;;18.11;73.37;100955.53;5045614;28;1889;-49
2020/12/14 11:53:23;;;;;;;;;;;;;;;18.12;72.87;100957.22;5048078;28;1753;-49
2020/12/14 11:55:48;;;;;;;;;;;;;;;18.13;73.51;100952.75;5052364;28;1520;-49
2020/12/14 11:58:13;;;;;;;;;;;;;;;18.16;74.16;100961.34;5052325;28;1902;-49
2020/12/14 12:00:39;;;;;;;;;;;;;;;18.18;74.60;100956.72;5050874;28;1689;-49
2020/12/14 12:03:04;;;;;;;;;;;;;;;18.24;73.97;100948.22;5046342;28;1752;-49
2020/12/14 12:05:29;;;;;;;;;;;;;;;18.26;73.79;100966.78;5039340;28;1748;-49
2020/12/14 12:07:54;;;;;;;;;;;;;;;18.27;73.12;100955.13;5041885;28;1595;-53
2020/12/14 12:10:20;;;;;;;;;;;;;;;18.34;72.75;100958.97;5046741;28;1878;-49
2020/12/14 12:12:45;;;;;;;;;;;;;;;18.38;72.43;100965.81;5045777;28;1806;-50
2020/12/14 12:15:15;;;;;;;;;;;;;;;18.41;72.33;100960.19;5044834;28;1389;-49
2020/12/14 12:17:40;;;;;;;;;;;;;;;18.44;72.56;100967.09;5045470;28;1742;-49
2020/12/14 12:20:05;;;;;;;;;;;;;;;18.39;72.60;100972.00;5041627;28;1509;-49
2020/12/14 12:22:30;;;;;;;;;;;;;;;18.37;72.29;100957.91;5039457;28;1754;-49
2020/12/14 12:24:56;;;;;;;;;;;;;;;18.35;72.64;100968.72;5038016;28;1395;-50
2020/12/14 12:27:21;;;;;;;;;;;;;;;18.38;72.59;100976.53;5041209;28;1474;-49
2020/12/14 12:29:46;;;;;;;;;;;;;;;18.31;72.47;100953.06;5046464;28;1690;-50
2020/12/14 12:32:11;;;;;;;;;;;;;;;18.38;72.02;100975.66;5044370;28;1909;-49
2020/12/14 12:34:36;;;;;;;;;;;;;;;18.35;72.40;100982.13;5039605;28;1572;-50
2020/12/14 12:37:02;;;;;;;;;;;;;;;18.32;72.44;100987.72;5040992;28;1786;-50
2020/12/14 12:39:28;;;;;;;;;;;;;;;18.26;71.98;100983.72;5042184;28;1689;-50
2020/12/14 12:41:54;;;;;;;;;;;;;;;18.28;72.75;100979.09;5039511;28;1614;-51
2020/12/14 12:44:20;;;;;;;;;;;;;;;18.25;72.72;100978.50;5049247;28;2044;-50
2020/12/14 12:46:45;;;;;;;;;;;;;;;18.23;71.99;100983.13;5041114;28;1488;-49
2020/12/14 12:49:10;;;;;;;;;;;;;;;18.19;72.06;100982.50;5050025;28;1694;-49
2020/12/14 12:51:35;;;;;;;;;;;;;;;18.23;72.42;100989.31;5042512;28;1948;-50
2020/12/14 12:54:02;;;;;;;;;;;;;;;18.21;72.78;100987.75;5047763;28;1572;-49
2020/12/14 12:56:27;;;;;;;;;;;;;;;18.23;72.28;101000.03;5049415;28;1738;-49
2020/12/14 12:58:53;;;;;;;;;;;;;;;18.25;71.72;100991.88;5043185;28;1530;-50
2020/12/14 13:01:18;;;;;;;;;;;;;;;18.22;72.08;100990.31;5050446;28;1728;-49
2020/12/14 13:03:43;;;;;;;;;;;;;;;18.20;72.51;100997.59;5042934;28;820;-51
2020/12/14 13:06:09;;;;;;;;;;;;;;;18.24;72.27;100996.38;5043039;28;1937;-49
2020/12/14 13:08:34;;;;;;;;;;;;;;;18.32;71.91;101002.94;5040757;28;1926;-49
2020/12/14 13:10:59;;;;;;;;;;;;;;;18.39;70.88;100988.91;5050220;28;1964;-50
2020/12/14 13:13:25;;;;;;;;;;;;;;;18.42;71.42;100999.38;5045288;28;1457;-50
2020/12/14 13:15:50;;;;;;;;;;;;;;;18.44;71.43;101009.94;5043299;28;1657;-49
2020/12/14 13:18:15;;;;;;;;;;;;;;;18.59;71.27;101006.00;5039277;28;1934;-49
2020/12/14 13:20:42;;;;;;;;;;;;;;;18.46;71.54;101016.03;5045320;28;1825;-50
2020/12/14 13:23:22;;;;;;;;;;;;;;;18.48;72.07;101003.34;5045272;28;1632;-49
2020/12/14 13:25:47;;;;;;;;;;;;;;;18.46;72.15;101018.69;5052072;28;1808;-50
2020/12/14 13:28:13;;;;;;;;;;;;;;;18.43;72.00;101013.63;5040183;28;1771;-50
2020/12/14 13:30:38;;;;;;;;;;;;;;;18.35;72.27;101008.88;5039826;28;1921;-50
2020/12/14 13:33:03;;;;;;;;;;;;;;;18.33;73.01;101020.72;5050372;28;1507;-49
2020/12/14 13:35:28;;;;;;;;;;;;;;;18.38;72.67;101018.50;5048260;28;1759;-51
2020/12/14 13:37:53;;;;;;;;;;;;;;;18.44;72.30;101028.69;5046162;28;1485;-53
2020/12/14 13:40:19;;;;;;;;;;;;;;;18.41;72.46;101012.91;5047657;28;1623;-52
2020/12/14 13:42:45;;;;;;;;;;;;;;;18.39;72.74;101026.41;5040456;28;1653;-53
2020/12/14 13:45:10;;;;;;;;;;;;;;;18.32;72.75;101021.66;5044087;28;1421;-53
2020/12/14 13:47:35;;;;;;;;;;;;;;;18.29;72.80;101026.28;5042317;28;1460;-53
2020/12/14 13:50:01;;;;;;;;;;;;;;;18.28;72.72;101029.97;5042956;28;1713;-53
2020/12/14 13:52:29;;;;;;;;;;;;;;;18.28;73.28;101021.94;5042988;28;1967;-53
2020/12/14 13:54:54;;;;;;;;;;;;;;;18.28;72.91;101035.31;5047853;28;1313;-53
2020/12/14 13:57:20;;;;;;;;;;;;;;;18.27;72.96;101024.72;5041334;28;1636;-53
2020/12/14 13:59:45;;;;;;;;;;;;;;;18.34;72.88;101027.75;5047598;28;1615;-53
2020/12/14 14:02:11;;;;;;;;;;;;;;;18.40;73.08;101033.47;5043792;28;1396;-56
2020/12/14 14:04:36;;;;;;;;;;;;;;;18.38;73.14;101030.06;5044779;28;1529;-53
2020/12/14 14:07:02;;;;;;;;;;;;;;;18.36;72.75;101037.34;5039984;28;1491;-55
2020/12/14 14:09:29;;;;;;;;;;;;;;;18.35;72.55;101034.81;5043404;28;1490;-53
2020/12/14 14:11:55;;;;;;;;;;;;;;;18.42;72.42;101030.66;5033142;28;1956;-54
2020/12/14 14:14:20;;;;;;;;;;;;;;;18.34;72.65;101041.97;5044649;28;1604;-53
2020/12/14 14:16:51;;;;;;;;;;;;;;;18.28;72.83;101046.03;5040865;28;1569;-54
2020/12/14 14:19:16;;;;;;;;;;;;;;;18.25;72.64;101042.75;5041067;28;1511;-53
2020/12/14 14:21:42;;;;;;;;;;;;;;;18.21;73.16;101050.16;5045497;28;1485;-53
2020/12/14 14:24:07;;;;;;;;;;;;;;;18.18;73.26;101061.09;5041303;28;1851;-53
2020/12/14 14:26:32;;;;;;;;;;;;;;;18.18;72.59;101061.09;5047689;28;1373;-53
2020/12/14 14:28:57;;;;;;;;;;;;;;;18.21;72.35;101050.16;5040286;28;1585;-54
2020/12/14 14:31:23;;;;;;;;;;;;;;;18.19;72.28;101056.63;5049665;28;1910;-54
2020/12/14 14:33:48;;;;;;;;;;;;;;;18.24;72.12;101054.41;5042079;28;1631;-53
2020/12/14 14:36:13;;;;;;;;;;;;;;;18.26;72.00;101055.13;5044644;28;1421;-53
2020/12/14 14:38:39;;;;;;;;;;;;;;;18.29;71.69;101069.13;5048098;28;1528;-53
2020/12/14 14:41:04;;;;;;;;;;;;;;;18.25;71.74;101070.34;5048127;28;1634;-54
2020/12/14 14:43:30;;;;;;;;;;;;;;;18.17;72.49;101071.94;5048872;28;1747;-54
2020/12/14 14:45:55;;;;;;;;;;;;;;;18.14;72.65;101065.00;5045209;28;1589;-53
2020/12/14 14:48:20;;;;;;;;;;;;;;;18.14;72.62;101081.06;5045203;28;1635;-54
2020/12/14 14:50:49;;;;;;;;;;;;;;;18.22;72.76;101072.41;5044937;28;1890;-53
2020/12/14 14:53:14;;;;;;;;;;;;;;;18.26;72.56;101077.41;5047488;28;1538;-53
2020/12/14 14:55:45;;;;;;;;;;;;;;;18.34;72.32;101083.97;5038965;28;1443;-54
2020/12/14 14:58:10;;;;;;;;;;;;;;;18.38;71.95;101082.75;5038945;28;1680;-54
2020/12/14 15:00:35;;;;;;;;;;;;;;;18.37;71.64;101086.41;5043988;28;1714;-54
2020/12/14 15:03:01;;;;;;;;;;;;;;;18.45;71.34;101089.31;5042997;28;1908;-54
2020/12/14 15:05:26;;;;;;;;;;;;;;;18.57;71.53;101101.72;5043602;28;1432;-53
2020/12/14 15:07:51;;;;;;;;;;;;;;;18.62;71.24;101102.19;5045468;28;1556;-54
2020/12/14 15:10:16;;;;;;;;;;;;;;;18.59;71.11;101094.41;5050111;28;1882;-54
2020/12/14 15:12:43;;;;;;;;;;;;;;;18.62;71.34;101104.88;5044242;28;1626;-56
2020/12/14 15:15:08;;;;;;;;;;;;;;;18.60;71.57;101093.44;5043748;28;1786;-53
2020/12/14 15:17:33;;;;;;;;;;;;;;;18.61;71.22;101110.34;5048799;28;1664;-53